Aérodrome :







RETROUVEZ-NOUS SUR...

 
LOGIN :

S'inscrire | Disclaimer

   EN    FR    IT 

 









Légende :    VFR   VFR Marginal   IFR   IFR Intensif   IFR Très Intensif
Visi : 
Plafond : 
>= 8 km
>= 3000ft
5 à 8 km
1000 à 3000 ft
1500m à 5 km
500 à 1000 ft
800 à 1500m
200 à 500 ft
< 800m
< 200 ft
Symboles :   Orages  Brouillard  Fortes neiges  Fortes précipitations  Vent > 20 kt






- Altitude de l'aérodrome : 328 ft


KGFL - Floyd Bennett Memorial

DERNIER METAR :
  • 061353Z AUTO A3003 RMK AO2 SLPNO PWINO FZRANO $

METARs EXPIRÉS :
  • 061253Z AUTO A3003 RMK AO2 SLPNO PWINO FZRANO $

TAF KGFL
Valide du 06 à 12h jusqu'au 07 à 12h UTC


061133Z 0612/0712 18005KT P6SM VCSH OVC035
FM061400 17005KT 4SM -SN OVC012
FM061600 06004KT 1SM -SN OVC008
FM070000 VRB03KT P6SM BKN015
FM070600 33004KT P6SM SCT250



MET'MAP, la Météo Aéronautique d'un coup d'oeil ! - Copyright ORBIFLY Décembre 2007 - Disclaimer

ORBIFLY MET'MAP TEAM :

Programmation & Développement : Alexandra Zaïnal
Sur une idée originale de : Baudouin d'Aumeries
Assistance à la programmation : Marc-Olivier Méhu
Soutien technique & logistique : Manuel Goepfert

Contact : metmap@orbifly.com




SOURCES & CREDITS :

   NOAA